sensor_id;sensor_type;location;lat;lon;timestamp;P1;durP1;ratioP1;P2;durP2;ratioP2
83055;SDS011;72881;43.514;1.510;2024-02-16T00:00:11;2.60;;;0.73;;
83055;SDS011;72881;43.514;1.510;2024-02-16T00:02:40;2.38;;;0.80;;
83055;SDS011;72881;43.514;1.510;2024-02-16T00:05:07;1.85;;;0.80;;
83055;SDS011;72881;43.514;1.510;2024-02-16T00:07:36;1.65;;;0.70;;
83055;SDS011;72881;43.514;1.510;2024-02-16T00:10:02;2.03;;;0.90;;
83055;SDS011;72881;43.514;1.510;2024-02-16T00:12:29;1.63;;;0.80;;
83055;SDS011;72881;43.514;1.510;2024-02-16T00:14:55;2.83;;;0.80;;
83055;SDS011;72881;43.514;1.510;2024-02-16T00:17:20;2.70;;;0.90;;
83055;SDS011;72881;43.514;1.510;2024-02-16T00:19:47;2.53;;;0.85;;
83055;SDS011;72881;43.514;1.510;2024-02-16T00:22:12;1.58;;;0.70;;
83055;SDS011;72881;43.514;1.510;2024-02-16T00:24:38;2.33;;;0.85;;
83055;SDS011;72881;43.514;1.510;2024-02-16T00:27:03;3.42;;;0.82;;
83055;SDS011;72881;43.514;1.510;2024-02-16T00:29:30;2.50;;;0.75;;
83055;SDS011;72881;43.514;1.510;2024-02-16T00:31:57;1.90;;;0.77;;
83055;SDS011;72881;43.514;1.510;2024-02-16T00:34:24;1.77;;;0.60;;
83055;SDS011;72881;43.514;1.510;2024-02-16T00:36:50;1.90;;;0.70;;
83055;SDS011;72881;43.514;1.510;2024-02-16T00:39:15;2.70;;;0.80;;
83055;SDS011;72881;43.514;1.510;2024-02-16T00:41:40;2.38;;;0.90;;
83055;SDS011;72881;43.514;1.510;2024-02-16T00:44:06;2.28;;;0.75;;
83055;SDS011;72881;43.514;1.510;2024-02-16T00:46:31;2.55;;;1.08;;
83055;SDS011;72881;43.514;1.510;2024-02-16T00:48:57;3.30;;;0.90;;
83055;SDS011;72881;43.514;1.510;2024-02-16T00:51:22;2.85;;;1.00;;
83055;SDS011;72881;43.514;1.510;2024-02-16T00:53:50;2.40;;;0.93;;
83055;SDS011;72881;43.514;1.510;2024-02-16T00:56:16;2.38;;;0.88;;
83055;SDS011;72881;43.514;1.510;2024-02-16T00:58:41;2.17;;;0.60;;
83055;SDS011;72881;43.514;1.510;2024-02-16T01:01:10;2.47;;;0.90;;
83055;SDS011;72881;43.514;1.510;2024-02-16T01:03:37;2.42;;;0.80;;
83055;SDS011;72881;43.514;1.510;2024-02-16T01:06:03;2.45;;;0.82;;
83055;SDS011;72881;43.514;1.510;2024-02-16T01:08:30;2.50;;;0.70;;
83055;SDS011;72881;43.514;1.510;2024-02-16T01:10:56;2.50;;;0.90;;
83055;SDS011;72881;43.514;1.510;2024-02-16T01:13:21;2.17;;;0.93;;
83055;SDS011;72881;43.514;1.510;2024-02-16T01:15:46;2.95;;;0.95;;
83055;SDS011;72881;43.514;1.510;2024-02-16T01:18:12;1.65;;;0.85;;
83055;SDS011;72881;43.514;1.510;2024-02-16T01:20:38;2.17;;;0.77;;
83055;SDS011;72881;43.514;1.510;2024-02-16T01:23:03;2.50;;;0.77;;
83055;SDS011;72881;43.514;1.510;2024-02-16T01:25:30;1.77;;;0.75;;
83055;SDS011;72881;43.514;1.510;2024-02-16T01:27:56;2.15;;;0.80;;
83055;SDS011;72881;43.514;1.510;2024-02-16T01:30:21;2.22;;;0.80;;
83055;SDS011;72881;43.514;1.510;2024-02-16T01:32:47;1.77;;;0.60;;
83055;SDS011;72881;43.514;1.510;2024-02-16T01:35:12;1.98;;;0.75;;
83055;SDS011;72881;43.514;1.510;2024-02-16T01:37:40;1.90;;;0.80;;
83055;SDS011;72881;43.514;1.510;2024-02-16T01:40:06;3.72;;;0.90;;
83055;SDS011;72881;43.514;1.510;2024-02-16T01:42:34;2.85;;;0.80;;
83055;SDS011;72881;43.514;1.510;2024-02-16T01:44:59;2.92;;;0.93;;
83055;SDS011;72881;43.514;1.510;2024-02-16T01:47:25;1.67;;;0.73;;
83055;SDS011;72881;43.514;1.510;2024-02-16T01:49:50;2.10;;;0.80;;
83055;SDS011;72881;43.514;1.510;2024-02-16T01:52:16;1.77;;;0.70;;
83055;SDS011;72881;43.514;1.510;2024-02-16T01:54:41;2.28;;;0.80;;
83055;SDS011;72881;43.514;1.510;2024-02-16T01:57:07;1.45;;;0.70;;
83055;SDS011;72881;43.514;1.510;2024-02-16T01:59:32;1.52;;;0.63;;
83055;SDS011;72881;43.514;1.510;2024-02-16T02:01:59;1.77;;;0.70;;
83055;SDS011;72881;43.514;1.510;2024-02-16T02:04:24;2.58;;;0.70;;
83055;SDS011;72881;43.514;1.510;2024-02-16T02:06:51;1.27;;;0.60;;
83055;SDS011;72881;43.514;1.510;2024-02-16T02:09:16;1.55;;;0.70;;
83055;SDS011;72881;43.514;1.510;2024-02-16T02:11:41;2.22;;;0.80;;
83055;SDS011;72881;43.514;1.510;2024-02-16T02:14:07;2.53;;;0.90;;
83055;SDS011;72881;43.514;1.510;2024-02-16T02:16:32;1.45;;;0.70;;
83055;SDS011;72881;43.514;1.510;2024-02-16T02:18:58;1.65;;;0.65;;
83055;SDS011;72881;43.514;1.510;2024-02-16T02:21:23;1.98;;;0.90;;
83055;SDS011;72881;43.514;1.510;2024-02-16T02:23:48;2.43;;;0.73;;
83055;SDS011;72881;43.514;1.510;2024-02-16T02:26:14;2.25;;;0.70;;
83055;SDS011;72881;43.514;1.510;2024-02-16T02:28:41;1.95;;;0.80;;
83055;SDS011;72881;43.514;1.510;2024-02-16T02:31:07;2.10;;;0.70;;
83055;SDS011;72881;43.514;1.510;2024-02-16T02:33:34;2.00;;;0.82;;
83055;SDS011;72881;43.514;1.510;2024-02-16T02:35:59;1.38;;;0.60;;
83055;SDS011;72881;43.514;1.510;2024-02-16T02:38:25;2.38;;;0.70;;
83055;SDS011;72881;43.514;1.510;2024-02-16T02:40:51;2.38;;;0.80;;
83055;SDS011;72881;43.514;1.510;2024-02-16T02:43:16;1.50;;;0.65;;
83055;SDS011;72881;43.514;1.510;2024-02-16T02:45:43;1.88;;;0.70;;
83055;SDS011;72881;43.514;1.510;2024-02-16T02:48:09;2.20;;;0.77;;
83055;SDS011;72881;43.514;1.510;2024-02-16T02:50:34;1.95;;;0.70;;
83055;SDS011;72881;43.514;1.510;2024-02-16T02:53:00;1.60;;;0.60;;
83055;SDS011;72881;43.514;1.510;2024-02-16T02:55:25;1.58;;;0.73;;
83055;SDS011;72881;43.514;1.510;2024-02-16T02:57:50;1.33;;;0.60;;
83055;SDS011;72881;43.514;1.510;2024-02-16T03:00:16;1.77;;;0.63;;
83055;SDS011;72881;43.514;1.510;2024-02-16T03:02:41;2.28;;;0.70;;
83055;SDS011;72881;43.514;1.510;2024-02-16T03:05:08;1.77;;;0.68;;
83055;SDS011;72881;43.514;1.510;2024-02-16T03:07:34;1.77;;;0.93;;
83055;SDS011;72881;43.514;1.510;2024-02-16T03:10:00;2.22;;;0.85;;
83055;SDS011;72881;43.514;1.510;2024-02-16T03:12:25;1.88;;;0.60;;
83055;SDS011;72881;43.514;1.510;2024-02-16T03:14:51;2.30;;;0.70;;
83055;SDS011;72881;43.514;1.510;2024-02-16T03:17:16;1.60;;;0.60;;
83055;SDS011;72881;43.514;1.510;2024-02-16T03:19:41;1.63;;;0.80;;
83055;SDS011;72881;43.514;1.510;2024-02-16T03:22:07;1.27;;;0.50;;
83055;SDS011;72881;43.514;1.510;2024-02-16T03:24:33;2.08;;;0.70;;
83055;SDS011;72881;43.514;1.510;2024-02-16T03:26:58;1.20;;;0.50;;
83055;SDS011;72881;43.514;1.510;2024-02-16T03:29:24;1.95;;;0.70;;
83055;SDS011;72881;43.514;1.510;2024-02-16T03:31:50;1.85;;;0.68;;
83055;SDS011;72881;43.514;1.510;2024-02-16T03:34:16;1.42;;;0.73;;
83055;SDS011;72881;43.514;1.510;2024-02-16T03:36:41;1.60;;;0.60;;
83055;SDS011;72881;43.514;1.510;2024-02-16T03:39:07;2.92;;;0.80;;
83055;SDS011;72881;43.514;1.510;2024-02-16T03:41:33;2.00;;;0.70;;
83055;SDS011;72881;43.514;1.510;2024-02-16T03:43:59;1.17;;;0.60;;
83055;SDS011;72881;43.514;1.510;2024-02-16T03:46:25;1.35;;;0.50;;
83055;SDS011;72881;43.514;1.510;2024-02-16T03:48:51;2.30;;;0.70;;
83055;SDS011;72881;43.514;1.510;2024-02-16T03:51:17;2.10;;;0.68;;
83055;SDS011;72881;43.514;1.510;2024-02-16T03:53:42;1.40;;;0.70;;
83055;SDS011;72881;43.514;1.510;2024-02-16T03:56:09;1.77;;;0.63;;
83055;SDS011;72881;43.514;1.510;2024-02-16T03:58:35;1.85;;;0.60;;
83055;SDS011;72881;43.514;1.510;2024-02-16T04:01:01;2.90;;;0.60;;
83055;SDS011;72881;43.514;1.510;2024-02-16T04:03:27;2.22;;;0.70;;
83055;SDS011;72881;43.514;1.510;2024-02-16T04:05:52;2.15;;;0.70;;
83055;SDS011;72881;43.514;1.510;2024-02-16T04:08:18;1.85;;;0.60;;
83055;SDS011;72881;43.514;1.510;2024-02-16T04:10:44;2.80;;;0.80;;
83055;SDS011;72881;43.514;1.510;2024-02-16T04:13:10;1.80;;;0.70;;
83055;SDS011;72881;43.514;1.510;2024-02-16T04:15:36;1.13;;;0.60;;
83055;SDS011;72881;43.514;1.510;2024-02-16T04:18:01;1.73;;;0.60;;
83055;SDS011;72881;43.514;1.510;2024-02-16T04:20:27;2.13;;;0.65;;
83055;SDS011;72881;43.514;1.510;2024-02-16T04:22:52;1.40;;;0.60;;
83055;SDS011;72881;43.514;1.510;2024-02-16T04:25:18;1.90;;;0.70;;
83055;SDS011;72881;43.514;1.510;2024-02-16T04:27:43;1.88;;;0.70;;
83055;SDS011;72881;43.514;1.510;2024-02-16T04:30:08;2.35;;;0.80;;
83055;SDS011;72881;43.514;1.510;2024-02-16T04:32:34;2.20;;;0.65;;
83055;SDS011;72881;43.514;1.510;2024-02-16T04:34:59;1.42;;;0.50;;
83055;SDS011;72881;43.514;1.510;2024-02-16T04:37:25;1.65;;;0.65;;
83055;SDS011;72881;43.514;1.510;2024-02-16T04:39:51;1.65;;;0.60;;
83055;SDS011;72881;43.514;1.510;2024-02-16T04:42:16;1.52;;;0.60;;
83055;SDS011;72881;43.514;1.510;2024-02-16T04:44:42;2.05;;;0.65;;
83055;SDS011;72881;43.514;1.510;2024-02-16T04:47:08;1.75;;;0.60;;
83055;SDS011;72881;43.514;1.510;2024-02-16T04:49:34;1.90;;;0.60;;
83055;SDS011;72881;43.514;1.510;2024-02-16T04:51:59;2.47;;;0.80;;
83055;SDS011;72881;43.514;1.510;2024-02-16T04:54:25;1.65;;;0.70;;
83055;SDS011;72881;43.514;1.510;2024-02-16T04:56:50;1.23;;;0.57;;
83055;SDS011;72881;43.514;1.510;2024-02-16T04:59:16;1.83;;;0.60;;
83055;SDS011;72881;43.514;1.510;2024-02-16T05:01:45;0.90;;;0.50;;
83055;SDS011;72881;43.514;1.510;2024-02-16T05:04:11;1.52;;;0.70;;
83055;SDS011;72881;43.514;1.510;2024-02-16T05:06:43;3.35;;;0.70;;
83055;SDS011;72881;43.514;1.510;2024-02-16T05:09:11;2.03;;;0.70;;
83055;SDS011;72881;43.514;1.510;2024-02-16T05:11:36;1.85;;;0.70;;
83055;SDS011;72881;43.514;1.510;2024-02-16T05:14:02;1.23;;;0.50;;
83055;SDS011;72881;43.514;1.510;2024-02-16T05:16:27;1.25;;;0.65;;
83055;SDS011;72881;43.514;1.510;2024-02-16T05:18:54;2.10;;;0.80;;
83055;SDS011;72881;43.514;1.510;2024-02-16T05:21:21;1.27;;;0.43;;
83055;SDS011;72881;43.514;1.510;2024-02-16T05:23:47;1.55;;;0.60;;
83055;SDS011;72881;43.514;1.510;2024-02-16T05:26:12;1.70;;;0.60;;
83055;SDS011;72881;43.514;1.510;2024-02-16T05:28:38;1.40;;;0.50;;
83055;SDS011;72881;43.514;1.510;2024-02-16T05:31:12;1.80;;;0.70;;
83055;SDS011;72881;43.514;1.510;2024-02-16T05:33:39;1.75;;;0.65;;
83055;SDS011;72881;43.514;1.510;2024-02-16T05:36:05;2.55;;;0.63;;
83055;SDS011;72881;43.514;1.510;2024-02-16T05:38:32;1.27;;;0.57;;
83055;SDS011;72881;43.514;1.510;2024-02-16T05:40:59;1.88;;;0.60;;
83055;SDS011;72881;43.514;1.510;2024-02-16T05:43:25;1.80;;;0.57;;
83055;SDS011;72881;43.514;1.510;2024-02-16T05:45:51;2.65;;;0.50;;
83055;SDS011;72881;43.514;1.510;2024-02-16T05:48:16;1.35;;;0.60;;
83055;SDS011;72881;43.514;1.510;2024-02-16T05:50:42;4.10;;;0.90;;
83055;SDS011;72881;43.514;1.510;2024-02-16T05:53:08;0.88;;;0.45;;
83055;SDS011;72881;43.514;1.510;2024-02-16T05:55:35;1.88;;;0.63;;
83055;SDS011;72881;43.514;1.510;2024-02-16T05:58:01;2.47;;;0.65;;
83055;SDS011;72881;43.514;1.510;2024-02-16T06:00:26;2.05;;;0.60;;
83055;SDS011;72881;43.514;1.510;2024-02-16T06:02:52;1.63;;;0.60;;
83055;SDS011;72881;43.514;1.510;2024-02-16T06:05:18;1.35;;;0.50;;
83055;SDS011;72881;43.514;1.510;2024-02-16T06:07:45;2.53;;;0.60;;
83055;SDS011;72881;43.514;1.510;2024-02-16T06:10:10;1.58;;;0.50;;
83055;SDS011;72881;43.514;1.510;2024-02-16T06:12:37;1.45;;;0.60;;
83055;SDS011;72881;43.514;1.510;2024-02-16T06:15:03;1.80;;;0.70;;
83055;SDS011;72881;43.514;1.510;2024-02-16T06:17:29;1.23;;;0.55;;
83055;SDS011;72881;43.514;1.510;2024-02-16T06:19:55;1.33;;;0.60;;
83055;SDS011;72881;43.514;1.510;2024-02-16T06:22:20;2.05;;;0.50;;
83055;SDS011;72881;43.514;1.510;2024-02-16T06:24:46;2.00;;;0.60;;
83055;SDS011;72881;43.514;1.510;2024-02-16T06:27:11;1.55;;;0.60;;
83055;SDS011;72881;43.514;1.510;2024-02-16T06:29:36;1.05;;;0.60;;
83055;SDS011;72881;43.514;1.510;2024-02-16T06:32:02;1.45;;;0.60;;
83055;SDS011;72881;43.514;1.510;2024-02-16T06:34:27;1.38;;;0.50;;
83055;SDS011;72881;43.514;1.510;2024-02-16T06:36:53;1.23;;;0.50;;
83055;SDS011;72881;43.514;1.510;2024-02-16T06:39:18;1.33;;;0.55;;
83055;SDS011;72881;43.514;1.510;2024-02-16T06:41:45;1.73;;;0.70;;
83055;SDS011;72881;43.514;1.510;2024-02-16T06:44:11;1.30;;;0.50;;
83055;SDS011;72881;43.514;1.510;2024-02-16T06:46:37;1.67;;;0.47;;
83055;SDS011;72881;43.514;1.510;2024-02-16T06:49:02;0.90;;;0.50;;
83055;SDS011;72881;43.514;1.510;2024-02-16T06:51:28;3.15;;;0.52;;
83055;SDS011;72881;43.514;1.510;2024-02-16T06:53:54;1.95;;;0.50;;
83055;SDS011;72881;43.514;1.510;2024-02-16T06:56:20;1.30;;;0.60;;
83055;SDS011;72881;43.514;1.510;2024-02-16T06:58:46;1.15;;;0.50;;
83055;SDS011;72881;43.514;1.510;2024-02-16T07:01:15;5.07;;;0.65;;
83055;SDS011;72881;43.514;1.510;2024-02-16T07:03:41;2.63;;;0.50;;
83055;SDS011;72881;43.514;1.510;2024-02-16T07:06:08;2.30;;;0.73;;
83055;SDS011;72881;43.514;1.510;2024-02-16T07:08:38;1.42;;;0.60;;
83055;SDS011;72881;43.514;1.510;2024-02-16T07:11:06;1.10;;;0.50;;
83055;SDS011;72881;43.514;1.510;2024-02-16T07:13:36;1.58;;;0.60;;
83055;SDS011;72881;43.514;1.510;2024-02-16T07:16:02;1.33;;;0.47;;
83055;SDS011;72881;43.514;1.510;2024-02-16T07:18:29;1.35;;;0.57;;
83055;SDS011;72881;43.514;1.510;2024-02-16T07:20:55;2.75;;;0.50;;
83055;SDS011;72881;43.514;1.510;2024-02-16T07:23:21;1.35;;;0.50;;
83055;SDS011;72881;43.514;1.510;2024-02-16T07:25:46;1.10;;;0.40;;
83055;SDS011;72881;43.514;1.510;2024-02-16T07:28:11;1.42;;;0.60;;
83055;SDS011;72881;43.514;1.510;2024-02-16T07:30:37;2.55;;;0.50;;
83055;SDS011;72881;43.514;1.510;2024-02-16T07:33:05;5.30;;;0.50;;
83055;SDS011;72881;43.514;1.510;2024-02-16T07:35:32;1.35;;;0.52;;
83055;SDS011;72881;43.514;1.510;2024-02-16T07:37:58;2.42;;;0.52;;
83055;SDS011;72881;43.514;1.510;2024-02-16T07:40:23;2.38;;;0.60;;
83055;SDS011;72881;43.514;1.510;2024-02-16T07:42:49;3.08;;;0.60;;
83055;SDS011;72881;43.514;1.510;2024-02-16T07:45:14;2.60;;;0.70;;
83055;SDS011;72881;43.514;1.510;2024-02-16T07:47:43;1.85;;;0.63;;
83055;SDS011;72881;43.514;1.510;2024-02-16T07:50:09;1.73;;;0.60;;
83055;SDS011;72881;43.514;1.510;2024-02-16T07:52:35;1.23;;;0.45;;
83055;SDS011;72881;43.514;1.510;2024-02-16T07:55:00;2.03;;;0.70;;
83055;SDS011;72881;43.514;1.510;2024-02-16T07:57:26;1.40;;;0.57;;
83055;SDS011;72881;43.514;1.510;2024-02-16T07:59:52;1.27;;;0.40;;
83055;SDS011;72881;43.514;1.510;2024-02-16T08:02:17;1.90;;;0.45;;
83055;SDS011;72881;43.514;1.510;2024-02-16T08:04:46;1.23;;;0.50;;
83055;SDS011;72881;43.514;1.510;2024-02-16T08:07:14;2.78;;;0.60;;
83055;SDS011;72881;43.514;1.510;2024-02-16T08:09:43;1.10;;;0.45;;
83055;SDS011;72881;43.514;1.510;2024-02-16T08:12:10;0.77;;;0.38;;
83055;SDS011;72881;43.514;1.510;2024-02-16T08:14:35;1.83;;;0.80;;
83055;SDS011;72881;43.514;1.510;2024-02-16T08:17:00;2.45;;;0.60;;
83055;SDS011;72881;43.514;1.510;2024-02-16T08:19:31;1.15;;;0.50;;
83055;SDS011;72881;43.514;1.510;2024-02-16T08:21:59;3.33;;;0.57;;
83055;SDS011;72881;43.514;1.510;2024-02-16T08:24:24;1.80;;;0.50;;
83055;SDS011;72881;43.514;1.510;2024-02-16T08:26:50;1.35;;;0.52;;
83055;SDS011;72881;43.514;1.510;2024-02-16T08:29:16;1.30;;;0.50;;
83055;SDS011;72881;43.514;1.510;2024-02-16T08:31:41;2.30;;;0.60;;
83055;SDS011;72881;43.514;1.510;2024-02-16T08:34:06;2.38;;;0.50;;
83055;SDS011;72881;43.514;1.510;2024-02-16T08:36:32;1.05;;;0.50;;
83055;SDS011;72881;43.514;1.510;2024-02-16T08:38:59;2.38;;;0.60;;
83055;SDS011;72881;43.514;1.510;2024-02-16T08:41:24;1.30;;;0.45;;
83055;SDS011;72881;43.514;1.510;2024-02-16T08:43:50;2.42;;;0.60;;
83055;SDS011;72881;43.514;1.510;2024-02-16T08:46:15;3.88;;;0.55;;
83055;SDS011;72881;43.514;1.510;2024-02-16T08:48:41;2.17;;;0.50;;
83055;SDS011;72881;43.514;1.510;2024-02-16T08:51:06;3.40;;;0.50;;
83055;SDS011;72881;43.514;1.510;2024-02-16T08:53:32;6.78;;;0.90;;
83055;SDS011;72881;43.514;1.510;2024-02-16T08:55:57;3.35;;;0.80;;
83055;SDS011;72881;43.514;1.510;2024-02-16T08:58:23;3.25;;;1.00;;
83055;SDS011;72881;43.514;1.510;2024-02-16T09:00:48;3.70;;;0.80;;
83055;SDS011;72881;43.514;1.510;2024-02-16T09:03:15;5.18;;;0.90;;
83055;SDS011;72881;43.514;1.510;2024-02-16T09:05:41;4.18;;;1.20;;
83055;SDS011;72881;43.514;1.510;2024-02-16T09:08:08;3.15;;;0.90;;
83055;SDS011;72881;43.514;1.510;2024-02-16T09:10:34;5.03;;;1.02;;
83055;SDS011;72881;43.514;1.510;2024-02-16T09:13:00;3.90;;;0.88;;
83055;SDS011;72881;43.514;1.510;2024-02-16T09:15:25;3.25;;;0.90;;
83055;SDS011;72881;43.514;1.510;2024-02-16T09:17:50;5.63;;;1.30;;
83055;SDS011;72881;43.514;1.510;2024-02-16T09:20:16;5.70;;;1.25;;
83055;SDS011;72881;43.514;1.510;2024-02-16T09:22:47;6.90;;;1.30;;
83055;SDS011;72881;43.514;1.510;2024-02-16T09:25:13;8.68;;;2.00;;
83055;SDS011;72881;43.514;1.510;2024-02-16T09:27:42;12.32;;;1.85;;
83055;SDS011;72881;43.514;1.510;2024-02-16T09:30:10;7.63;;;1.83;;
83055;SDS011;72881;43.514;1.510;2024-02-16T09:32:39;7.70;;;1.52;;
83055;SDS011;72881;43.514;1.510;2024-02-16T09:35:05;7.68;;;1.60;;
83055;SDS011;72881;43.514;1.510;2024-02-16T09:37:31;8.02;;;1.77;;
83055;SDS011;72881;43.514;1.510;2024-02-16T09:39:56;11.10;;;2.08;;
83055;SDS011;72881;43.514;1.510;2024-02-16T09:42:24;7.97;;;1.70;;
83055;SDS011;72881;43.514;1.510;2024-02-16T09:44:53;8.82;;;1.70;;
83055;SDS011;72881;43.514;1.510;2024-02-16T09:47:19;5.35;;;1.55;;
83055;SDS011;72881;43.514;1.510;2024-02-16T09:49:47;7.25;;;1.73;;
83055;SDS011;72881;43.514;1.510;2024-02-16T09:52:13;6.38;;;1.55;;
83055;SDS011;72881;43.514;1.510;2024-02-16T09:54:38;7.57;;;1.98;;
83055;SDS011;72881;43.514;1.510;2024-02-16T09:57:04;6.43;;;1.50;;
83055;SDS011;72881;43.514;1.510;2024-02-16T09:59:30;6.70;;;1.70;;
83055;SDS011;72881;43.514;1.510;2024-02-16T10:02:02;5.28;;;1.48;;
83055;SDS011;72881;43.514;1.510;2024-02-16T10:04:28;6.82;;;2.08;;
83055;SDS011;72881;43.514;1.510;2024-02-16T10:06:54;6.85;;;2.03;;
83055;SDS011;72881;43.514;1.510;2024-02-16T10:09:26;8.68;;;1.52;;
83055;SDS011;72881;43.514;1.510;2024-02-16T10:11:54;4.57;;;1.15;;
83055;SDS011;72881;43.514;1.510;2024-02-16T10:14:19;8.82;;;1.92;;
83055;SDS011;72881;43.514;1.510;2024-02-16T10:16:45;3.95;;;1.23;;
83055;SDS011;72881;43.514;1.510;2024-02-16T10:19:23;6.07;;;1.33;;
83055;SDS011;72881;43.514;1.510;2024-02-16T10:21:49;6.35;;;1.52;;
83055;SDS011;72881;43.514;1.510;2024-02-16T10:24:14;9.38;;;1.40;;
83055;SDS011;72881;43.514;1.510;2024-02-16T10:26:40;6.78;;;1.50;;
83055;SDS011;72881;43.514;1.510;2024-02-16T10:29:07;5.00;;;1.30;;
83055;SDS011;72881;43.514;1.510;2024-02-16T10:31:34;5.35;;;1.58;;
83055;SDS011;72881;43.514;1.510;2024-02-16T10:34:03;6.03;;;1.30;;
83055;SDS011;72881;43.514;1.510;2024-02-16T10:36:35;5.40;;;1.60;;
83055;SDS011;72881;43.514;1.510;2024-02-16T10:39:01;6.55;;;1.67;;
83055;SDS011;72881;43.514;1.510;2024-02-16T10:41:34;5.05;;;1.73;;
83055;SDS011;72881;43.514;1.510;2024-02-16T10:44:01;6.05;;;1.45;;
83055;SDS011;72881;43.514;1.510;2024-02-16T10:46:28;7.68;;;1.58;;
83055;SDS011;72881;43.514;1.510;2024-02-16T10:48:53;4.53;;;1.30;;
83055;SDS011;72881;43.514;1.510;2024-02-16T10:51:29;4.78;;;1.38;;
83055;SDS011;72881;43.514;1.510;2024-02-16T10:53:56;4.55;;;1.30;;
83055;SDS011;72881;43.514;1.510;2024-02-16T10:56:31;6.13;;;1.58;;
83055;SDS011;72881;43.514;1.510;2024-02-16T10:59:00;4.10;;;1.50;;
83055;SDS011;72881;43.514;1.510;2024-02-16T11:01:27;4.43;;;1.40;;
83055;SDS011;72881;43.514;1.510;2024-02-16T11:04:00;7.20;;;1.80;;
83055;SDS011;72881;43.514;1.510;2024-02-16T11:06:27;6.10;;;1.60;;
83055;SDS011;72881;43.514;1.510;2024-02-16T11:08:53;5.65;;;1.50;;
83055;SDS011;72881;43.514;1.510;2024-02-16T11:11:24;7.63;;;1.58;;
83055;SDS011;72881;43.514;1.510;2024-02-16T11:13:49;5.22;;;1.23;;
83055;SDS011;72881;43.514;1.510;2024-02-16T11:16:20;5.65;;;1.40;;
83055;SDS011;72881;43.514;1.510;2024-02-16T11:18:47;4.22;;;1.15;;
83055;SDS011;72881;43.514;1.510;2024-02-16T11:21:17;3.95;;;1.40;;
83055;SDS011;72881;43.514;1.510;2024-02-16T11:23:42;5.90;;;1.50;;
83055;SDS011;72881;43.514;1.510;2024-02-16T11:26:10;4.80;;;1.27;;
83055;SDS011;72881;43.514;1.510;2024-02-16T11:28:40;4.15;;;1.33;;
83055;SDS011;72881;43.514;1.510;2024-02-16T11:31:06;4.53;;;1.35;;
83055;SDS011;72881;43.514;1.510;2024-02-16T11:33:35;5.05;;;1.30;;
83055;SDS011;72881;43.514;1.510;2024-02-16T11:36:04;5.10;;;1.40;;
83055;SDS011;72881;43.514;1.510;2024-02-16T11:38:31;4.22;;;1.20;;
83055;SDS011;72881;43.514;1.510;2024-02-16T11:43:23;5.00;;;1.20;;
83055;SDS011;72881;43.514;1.510;2024-02-16T11:45:49;7.70;;;1.30;;
83055;SDS011;72881;43.514;1.510;2024-02-16T11:48:19;5.55;;;1.17;;
83055;SDS011;72881;43.514;1.510;2024-02-16T11:50:46;5.20;;;1.23;;
83055;SDS011;72881;43.514;1.510;2024-02-16T11:53:14;9.18;;;1.40;;
83055;SDS011;72881;43.514;1.510;2024-02-16T11:55:45;5.57;;;1.27;;
83055;SDS011;72881;43.514;1.510;2024-02-16T11:58:12;6.20;;;1.10;;
83055;SDS011;72881;43.514;1.510;2024-02-16T12:00:39;4.90;;;1.52;;
83055;SDS011;72881;43.514;1.510;2024-02-16T12:03:06;9.93;;;2.33;;
83055;SDS011;72881;43.514;1.510;2024-02-16T12:05:32;6.25;;;1.60;;
83055;SDS011;72881;43.514;1.510;2024-02-16T12:07:58;6.10;;;1.63;;
83055;SDS011;72881;43.514;1.510;2024-02-16T12:10:24;4.45;;;1.55;;
83055;SDS011;72881;43.514;1.510;2024-02-16T12:12:50;5.40;;;1.35;;
83055;SDS011;72881;43.514;1.510;2024-02-16T12:15:15;5.40;;;1.95;;
83055;SDS011;72881;43.514;1.510;2024-02-16T12:17:42;6.97;;;1.58;;
83055;SDS011;72881;43.514;1.510;2024-02-16T12:20:11;5.65;;;1.65;;
83055;SDS011;72881;43.514;1.510;2024-02-16T12:22:40;6.00;;;1.48;;
83055;SDS011;72881;43.514;1.510;2024-02-16T12:25:05;5.95;;;1.75;;
83055;SDS011;72881;43.514;1.510;2024-02-16T12:27:31;8.05;;;1.58;;
83055;SDS011;72881;43.514;1.510;2024-02-16T12:29:56;5.20;;;1.50;;
83055;SDS011;72881;43.514;1.510;2024-02-16T12:32:22;6.80;;;1.80;;
83055;SDS011;72881;43.514;1.510;2024-02-16T12:34:47;5.25;;;1.23;;
83055;SDS011;72881;43.514;1.510;2024-02-16T12:37:14;5.38;;;1.40;;
83055;SDS011;72881;43.514;1.510;2024-02-16T12:39:39;4.95;;;1.35;;
83055;SDS011;72881;43.514;1.510;2024-02-16T12:42:06;5.78;;;1.70;;
83055;SDS011;72881;43.514;1.510;2024-02-16T12:44:32;7.30;;;1.33;;
83055;SDS011;72881;43.514;1.510;2024-02-16T12:46:57;5.70;;;1.48;;
83055;SDS011;72881;43.514;1.510;2024-02-16T12:49:22;5.30;;;1.30;;
83055;SDS011;72881;43.514;1.510;2024-02-16T12:51:50;6.40;;;0.95;;
83055;SDS011;72881;43.514;1.510;2024-02-16T12:54:17;4.38;;;1.50;;
83055;SDS011;72881;43.514;1.510;2024-02-16T12:56:47;5.85;;;1.30;;
83055;SDS011;72881;43.514;1.510;2024-02-16T12:59:13;7.35;;;1.60;;
83055;SDS011;72881;43.514;1.510;2024-02-16T13:01:38;5.20;;;1.58;;
83055;SDS011;72881;43.514;1.510;2024-02-16T13:04:05;7.75;;;1.90;;
83055;SDS011;72881;43.514;1.510;2024-02-16T13:06:31;6.40;;;1.30;;
83055;SDS011;72881;43.514;1.510;2024-02-16T13:08:56;7.55;;;1.85;;
83055;SDS011;72881;43.514;1.510;2024-02-16T13:11:22;8.18;;;1.83;;
83055;SDS011;72881;43.514;1.510;2024-02-16T13:13:49;7.88;;;1.58;;
83055;SDS011;72881;43.514;1.510;2024-02-16T13:16:14;4.57;;;1.42;;
83055;SDS011;72881;43.514;1.510;2024-02-16T13:18:39;8.13;;;1.58;;
83055;SDS011;72881;43.514;1.510;2024-02-16T13:21:06;6.22;;;1.50;;
83055;SDS011;72881;43.514;1.510;2024-02-16T13:23:31;7.45;;;1.63;;
83055;SDS011;72881;43.514;1.510;2024-02-16T13:25:56;5.35;;;1.40;;
83055;SDS011;72881;43.514;1.510;2024-02-16T13:28:22;10.05;;;1.60;;
83055;SDS011;72881;43.514;1.510;2024-02-16T13:30:48;6.18;;;1.60;;
83055;SDS011;72881;43.514;1.510;2024-02-16T13:33:13;5.03;;;1.45;;
83055;SDS011;72881;43.514;1.510;2024-02-16T13:35:39;5.43;;;1.70;;
83055;SDS011;72881;43.514;1.510;2024-02-16T13:38:04;6.18;;;1.73;;
83055;SDS011;72881;43.514;1.510;2024-02-16T13:40:30;6.25;;;1.35;;
83055;SDS011;72881;43.514;1.510;2024-02-16T13:42:55;7.32;;;1.52;;
83055;SDS011;72881;43.514;1.510;2024-02-16T13:45:26;5.07;;;1.60;;
83055;SDS011;72881;43.514;1.510;2024-02-16T13:47:53;5.35;;;1.50;;
83055;SDS011;72881;43.514;1.510;2024-02-16T13:50:18;4.85;;;1.30;;
83055;SDS011;72881;43.514;1.510;2024-02-16T13:52:43;4.82;;;1.40;;
83055;SDS011;72881;43.514;1.510;2024-02-16T13:55:09;6.78;;;1.70;;
83055;SDS011;72881;43.514;1.510;2024-02-16T13:57:34;6.30;;;1.50;;
83055;SDS011;72881;43.514;1.510;2024-02-16T14:00:00;8.15;;;1.60;;
83055;SDS011;72881;43.514;1.510;2024-02-16T14:02:26;5.82;;;1.55;;
83055;SDS011;72881;43.514;1.510;2024-02-16T14:04:51;4.72;;;1.35;;
83055;SDS011;72881;43.514;1.510;2024-02-16T14:07:17;5.22;;;1.48;;
83055;SDS011;72881;43.514;1.510;2024-02-16T14:09:42;9.35;;;1.60;;
83055;SDS011;72881;43.514;1.510;2024-02-16T14:12:08;9.32;;;1.58;;
83055;SDS011;72881;43.514;1.510;2024-02-16T14:14:33;4.78;;;1.35;;
83055;SDS011;72881;43.514;1.510;2024-02-16T14:16:59;5.20;;;1.40;;
83055;SDS011;72881;43.514;1.510;2024-02-16T14:19:24;5.90;;;1.40;;
83055;SDS011;72881;43.514;1.510;2024-02-16T14:21:50;5.05;;;1.42;;
83055;SDS011;72881;43.514;1.510;2024-02-16T14:24:15;4.88;;;1.25;;
83055;SDS011;72881;43.514;1.510;2024-02-16T14:26:43;5.53;;;1.20;;
83055;SDS011;72881;43.514;1.510;2024-02-16T14:29:08;4.28;;;1.40;;
83055;SDS011;72881;43.514;1.510;2024-02-16T14:31:35;4.85;;;1.25;;
83055;SDS011;72881;43.514;1.510;2024-02-16T14:34:01;4.97;;;1.40;;
83055;SDS011;72881;43.514;1.510;2024-02-16T14:36:26;7.20;;;1.50;;
83055;SDS011;72881;43.514;1.510;2024-02-16T14:38:52;7.95;;;1.38;;
83055;SDS011;72881;43.514;1.510;2024-02-16T14:41:17;4.30;;;1.15;;
83055;SDS011;72881;43.514;1.510;2024-02-16T14:43:44;3.83;;;1.10;;